createdAt,value
2023-05-22T00:00:41.556Z,12.50
2023-05-22T00:03:08.827Z,11.90
2023-05-22T00:05:39.354Z,12.97
2023-05-22T00:08:11.958Z,13.80
2023-05-22T00:10:39.732Z,12.13
2023-05-22T00:13:06.986Z,12.50
2023-05-22T00:15:34.047Z,12.03
2023-05-22T00:18:00.802Z,13.00
2023-05-22T00:20:28.074Z,13.03
2023-05-22T00:22:57.175Z,13.17
2023-05-22T00:25:24.372Z,12.60
2023-05-22T00:27:51.609Z,13.07
2023-05-22T00:30:18.686Z,12.90
2023-05-22T00:32:45.721Z,12.73
2023-05-22T00:35:13.105Z,12.23
2023-05-22T00:37:40.183Z,12.87
2023-05-22T00:40:08.707Z,12.70
2023-05-22T00:42:35.806Z,13.17
2023-05-22T00:45:02.772Z,12.67
2023-05-22T00:47:30.098Z,13.13
2023-05-22T00:49:57.076Z,14.27
2023-05-22T00:52:24.377Z,12.50
2023-05-22T00:54:54.363Z,12.67
2023-05-22T00:57:24.856Z,13.00
2023-05-22T00:59:52.566Z,12.47
2023-05-22T01:02:20.401Z,13.23
2023-05-22T01:04:51.151Z,12.80
2023-05-22T01:07:18.089Z,12.77
2023-05-22T01:09:45.173Z,13.27
2023-05-22T01:12:27.892Z,12.87
2023-05-22T01:15:24.801Z,12.87
2023-05-22T01:18:19.952Z,12.80
2023-05-22T01:20:58.548Z,17.67
2023-05-22T01:23:44.015Z,12.47
2023-05-22T01:26:16.926Z,12.87
2023-05-22T01:29:11.748Z,13.50
2023-05-22T01:31:43.506Z,13.60
2023-05-22T01:34:14.820Z,15.07
2023-05-22T01:36:46.295Z,12.63
2023-05-22T01:39:14.962Z,12.83
2023-05-22T01:41:42.197Z,13.63
2023-05-22T01:44:09.276Z,13.77
2023-05-22T01:46:36.437Z,13.73
2023-05-22T01:49:03.631Z,13.70
2023-05-22T01:51:53.898Z,13.03
2023-05-22T01:54:53.818Z,14.80
2023-05-22T01:57:44.535Z,14.43
2023-05-22T02:00:15.427Z,14.63
2023-05-22T02:02:48.807Z,13.63
2023-05-22T02:05:19.004Z,13.87
2023-05-22T02:07:47.859Z,14.37
2023-05-22T02:10:16.306Z,12.67
2023-05-22T02:12:43.795Z,12.60
2023-05-22T02:15:11.693Z,14.63
2023-05-22T02:17:42.123Z,14.93
2023-05-22T02:20:15.620Z,12.87
2023-05-22T02:22:46.815Z,13.27
2023-05-22T02:25:17.682Z,13.93
2023-05-22T02:27:47.157Z,13.47
2023-05-22T02:30:15.392Z,13.90
2023-05-22T02:32:42.630Z,13.40
2023-05-22T02:35:10.560Z,13.10
2023-05-22T02:37:37.816Z,13.47
2023-05-22T02:40:08.281Z,14.10
2023-05-22T02:42:35.597Z,15.10
2023-05-22T02:45:03.117Z,15.00
2023-05-22T02:47:30.169Z,13.77
2023-05-22T02:49:58.190Z,14.77
2023-05-22T02:52:25.739Z,13.67
2023-05-22T02:54:53.029Z,13.53
2023-05-22T02:57:19.985Z,12.83
2023-05-22T02:59:46.841Z,13.90
2023-05-22T03:02:15.231Z,13.13
2023-05-22T03:04:42.543Z,13.43
2023-05-22T03:07:09.439Z,12.87
2023-05-22T03:09:36.516Z,13.10
2023-05-22T03:12:03.665Z,13.27
2023-05-22T03:14:30.583Z,13.37
2023-05-22T03:16:59.089Z,12.93
2023-05-22T03:19:26.857Z,12.20
2023-05-22T03:21:54.106Z,12.13
2023-05-22T03:24:21.354Z,13.50
2023-05-22T03:26:48.332Z,12.60
2023-05-22T03:29:15.316Z,12.47
2023-05-22T03:31:42.394Z,12.57
2023-05-22T03:34:09.405Z,11.93
2023-05-22T03:36:36.562Z,12.33
2023-05-22T03:39:04.002Z,12.57
2023-05-22T03:41:31.367Z,11.53
2023-05-22T03:43:59.003Z,12.03
2023-05-22T03:46:26.681Z,11.77
2023-05-22T03:48:53.763Z,10.60
2023-05-22T03:51:21.012Z,12.83
2023-05-22T03:53:48.084Z,13.57
2023-05-22T03:56:15.295Z,11.70
2023-05-22T03:58:42.202Z,10.87
2023-05-22T04:01:10.312Z,11.27
2023-05-22T04:03:38.077Z,11.53
2023-05-22T04:06:06.037Z,10.90
2023-05-22T04:08:33.414Z,10.03
2023-05-22T04:11:00.776Z,10.13
2023-05-22T04:13:27.902Z,11.23
2023-05-22T04:15:57.042Z,10.03
2023-05-22T04:18:24.157Z,11.00
2023-05-22T04:20:52.119Z,9.87
2023-05-22T04:23:19.307Z,10.17
2023-05-22T04:25:48.185Z,9.07
2023-05-22T04:28:17.795Z,9.93
2023-05-22T04:30:44.982Z,9.50
2023-05-22T04:33:12.848Z,8.40
2023-05-22T04:35:41.203Z,9.33
2023-05-22T04:38:08.702Z,8.10
2023-05-22T04:40:38.368Z,8.30
2023-05-22T04:43:05.869Z,8.00
2023-05-22T04:45:33.171Z,7.87
2023-05-22T04:48:02.928Z,8.57
2023-05-22T04:50:33.149Z,9.30
2023-05-22T04:53:00.525Z,9.13
2023-05-22T04:55:34.388Z,8.70
2023-05-22T04:58:01.261Z,10.57
2023-05-22T05:00:30.053Z,8.87
2023-05-22T05:02:57.745Z,9.50
2023-05-22T05:05:25.162Z,8.40
2023-05-22T05:07:53.472Z,10.10
2023-05-22T05:10:20.736Z,8.50
2023-05-22T05:12:47.802Z,7.87
2023-05-22T05:15:14.904Z,9.50
2023-05-22T05:17:41.828Z,9.50
2023-05-22T05:20:09.554Z,55.57
2023-05-22T05:22:37.695Z,7.70
2023-05-22T05:25:05.835Z,7.50
2023-05-22T05:27:33.074Z,11.10
2023-05-22T05:30:00.596Z,11.00
2023-05-22T05:32:28.039Z,6.63
2023-05-22T05:34:55.210Z,8.30
2023-05-22T05:37:22.837Z,8.23
2023-05-22T05:39:49.869Z,7.40
2023-05-22T05:42:18.202Z,6.63
2023-05-22T05:44:45.216Z,7.47
2023-05-22T05:47:12.506Z,7.37
2023-05-22T05:49:39.512Z,6.93
2023-05-22T05:52:06.892Z,8.07
2023-05-22T05:54:33.756Z,6.80
2023-05-22T05:57:00.777Z,6.70
2023-05-22T05:59:27.720Z,6.50
2023-05-22T06:01:54.816Z,6.23
2023-05-22T06:04:22.165Z,6.47
2023-05-22T06:06:48.957Z,6.73
2023-05-22T06:09:16.665Z,8.43
2023-05-22T06:11:43.666Z,9.63
2023-05-22T06:14:11.322Z,6.53
2023-05-22T06:16:38.401Z,8.20
2023-05-22T06:19:05.586Z,9.17
2023-05-22T06:21:32.606Z,8.10
2023-05-22T06:23:59.626Z,5.90
2023-05-22T06:26:26.440Z,6.53
2023-05-22T06:28:54.695Z,6.57
2023-05-22T06:31:23.120Z,6.87
2023-05-22T06:33:50.596Z,7.40
2023-05-22T06:36:17.746Z,8.13
2023-05-22T06:38:46.312Z,5.63
2023-05-22T06:41:13.413Z,5.60
2023-05-22T06:43:40.384Z,7.33
2023-05-22T06:46:07.588Z,5.17
2023-05-22T06:48:35.947Z,5.00
2023-05-22T06:51:03.217Z,6.20
2023-05-22T06:53:30.344Z,5.67
2023-05-22T06:55:57.583Z,7.00
2023-05-22T06:58:24.516Z,5.47
2023-05-22T07:00:51.584Z,4.60
2023-05-22T07:03:18.580Z,6.60
2023-05-22T07:05:45.608Z,4.53
2023-05-22T07:08:12.670Z,4.40
2023-05-22T07:10:39.674Z,7.07
2023-05-22T07:13:06.872Z,6.37
2023-05-22T07:15:33.918Z,7.67
2023-05-22T07:18:01.001Z,6.30
2023-05-22T07:20:28.230Z,5.60
2023-05-22T07:22:55.164Z,6.73
2023-05-22T07:25:22.026Z,4.10
2023-05-22T07:27:49.023Z,4.17
2023-05-22T07:30:16.259Z,5.03
2023-05-22T07:32:43.123Z,3.43
2023-05-22T07:35:11.151Z,5.60
2023-05-22T07:37:38.706Z,7.83
2023-05-22T07:40:12.720Z,5.93
2023-05-22T07:42:39.749Z,5.37
2023-05-22T07:45:07.315Z,6.00
2023-05-22T07:47:34.514Z,5.20
2023-05-22T07:50:04.613Z,5.13
2023-05-22T07:52:34.181Z,4.73
2023-05-22T07:55:01.160Z,5.83
2023-05-22T07:57:29.808Z,4.30
2023-05-22T07:59:57.424Z,3.40
2023-05-22T08:02:24.564Z,18.10
2023-05-22T08:04:54.837Z,3.43
2023-05-22T08:07:22.120Z,6.13
2023-05-22T08:09:49.001Z,6.27
2023-05-22T08:12:16.002Z,3.47
2023-05-22T08:14:43.018Z,6.57
2023-05-22T08:17:10.051Z,4.17
2023-05-22T08:19:36.996Z,4.83
2023-05-22T08:22:04.151Z,6.67
2023-05-22T08:24:31.680Z,3.37
2023-05-22T08:26:59.222Z,3.77
2023-05-22T08:29:26.207Z,3.53
2023-05-22T08:31:54.205Z,6.90
2023-05-22T08:34:21.486Z,7.00
2023-05-22T08:36:50.085Z,4.43
2023-05-22T08:39:19.419Z,5.90
2023-05-22T08:41:47.784Z,3.80
2023-05-22T08:44:14.816Z,8.07
2023-05-22T08:46:45.902Z,5.90
2023-05-22T08:49:13.672Z,9.40
2023-05-22T08:51:45.040Z,5.83
2023-05-22T08:54:12.112Z,3.23
2023-05-22T08:56:52.888Z,2.67
2023-05-22T08:59:23.545Z,3.07
2023-05-22T09:01:52.709Z,4.17
2023-05-22T09:04:23.996Z,6.23
2023-05-22T09:06:51.969Z,3.53
2023-05-22T09:09:19.062Z,12.00
2023-05-22T09:11:46.439Z,3.80
2023-05-22T09:14:13.428Z,3.77
2023-05-22T09:16:47.719Z,6.47
2023-05-22T09:19:16.192Z,2.93
2023-05-22T09:21:44.614Z,4.63
2023-05-22T09:24:12.320Z,3.87
2023-05-22T09:26:39.829Z,3.13
2023-05-22T09:29:11.288Z,5.10
2023-05-22T09:31:43.082Z,9.63
2023-05-22T09:34:17.900Z,2.63
2023-05-22T09:36:44.844Z,2.85
2023-05-22T09:39:11.929Z,3.63
2023-05-22T09:41:40.314Z,5.00
2023-05-22T09:44:17.042Z,2.90
2023-05-22T09:46:48.023Z,3.63
2023-05-22T09:49:16.685Z,4.87
2023-05-22T09:51:48.519Z,4.27
2023-05-22T09:54:16.613Z,4.87
2023-05-22T09:56:45.029Z,3.83
2023-05-22T09:59:14.027Z,4.57
2023-05-22T10:01:42.979Z,3.57
2023-05-22T10:04:14.566Z,6.33
2023-05-22T10:06:43.250Z,2.70
2023-05-22T10:09:19.253Z,3.67
2023-05-22T10:11:49.733Z,4.27
2023-05-22T10:14:17.146Z,6.80
2023-05-22T10:16:45.577Z,4.57
2023-05-22T10:19:14.107Z,11.43
2023-05-22T10:21:42.206Z,3.63
2023-05-22T10:24:10.285Z,2.83
2023-05-22T10:26:39.072Z,3.00
2023-05-22T10:29:13.022Z,5.50
2023-05-22T10:32:03.086Z,3.20
2023-05-22T10:34:33.433Z,4.00
2023-05-22T10:37:22.300Z,5.93
2023-05-22T10:40:05.440Z,3.63
2023-05-22T10:42:32.903Z,4.63
2023-05-22T10:45:04.664Z,10.20
2023-05-22T10:47:34.235Z,3.83
2023-05-22T10:50:12.184Z,3.63
2023-05-22T10:52:40.841Z,3.00
2023-05-22T10:55:09.787Z,3.47
2023-05-22T10:57:40.238Z,6.20
2023-05-22T11:00:16.571Z,4.53
2023-05-22T11:02:45.717Z,5.57
2023-05-22T11:05:22.001Z,3.00
2023-05-22T11:07:49.493Z,4.83
2023-05-22T11:10:27.165Z,5.90
2023-05-22T11:13:12.309Z,4.23
2023-05-22T11:15:46.026Z,8.73
2023-05-22T11:18:14.840Z,4.00
2023-05-22T11:20:42.368Z,4.60
2023-05-22T11:23:11.446Z,3.67
2023-05-22T11:25:41.542Z,2.87
2023-05-22T11:28:10.857Z,9.57
2023-05-22T11:30:38.982Z,3.57
2023-05-22T11:33:06.982Z,4.57
2023-05-22T11:35:34.713Z,5.10
2023-05-22T11:38:05.534Z,4.37
2023-05-22T11:40:32.578Z,4.10
2023-05-22T11:42:59.810Z,6.87
2023-05-22T11:45:27.322Z,7.50
2023-05-22T11:47:54.431Z,7.50
2023-05-22T11:50:40.270Z,3.97
2023-05-22T11:53:08.801Z,3.20
2023-05-22T11:55:36.020Z,3.50
2023-05-22T11:58:03.114Z,6.90
2023-05-22T12:00:31.787Z,4.17
2023-05-22T12:02:59.462Z,4.80
2023-05-22T12:05:26.665Z,2.90
2023-05-22T12:07:53.809Z,3.17
2023-05-22T12:10:20.854Z,4.17
2023-05-22T12:12:48.318Z,4.23
2023-05-22T12:15:20.563Z,7.37
2023-05-22T12:17:47.806Z,5.03
2023-05-22T12:20:15.023Z,7.17
2023-05-22T12:22:43.654Z,3.77
2023-05-22T12:25:18.215Z,3.37
2023-05-22T12:27:46.302Z,6.57
2023-05-22T12:30:14.702Z,4.73
2023-05-22T12:32:47.177Z,5.37
2023-05-22T12:35:18.110Z,3.07
2023-05-22T12:37:49.884Z,5.23
2023-05-22T12:40:17.020Z,5.40
2023-05-22T12:42:45.351Z,4.13
2023-05-22T12:45:13.472Z,4.70
2023-05-22T12:47:40.760Z,5.27
2023-05-22T12:50:08.609Z,4.83
2023-05-22T12:52:36.666Z,6.40
2023-05-22T12:55:03.884Z,5.47
2023-05-22T12:57:30.709Z,3.33
2023-05-22T12:59:57.629Z,6.90
2023-05-22T13:02:24.811Z,4.60
2023-05-22T13:04:54.629Z,3.33
2023-05-22T13:07:21.831Z,7.83
2023-05-22T13:09:48.695Z,6.27
2023-05-22T13:12:15.972Z,4.70
2023-05-22T13:14:43.053Z,8.30
2023-05-22T13:17:10.896Z,5.20
2023-05-22T13:19:38.396Z,6.97
2023-05-22T13:22:07.595Z,7.57
2023-05-22T13:24:34.646Z,7.27
2023-05-22T13:27:01.948Z,6.77
2023-05-22T13:29:29.075Z,3.57
2023-05-22T13:31:55.992Z,3.93
2023-05-22T13:34:23.206Z,3.23
2023-05-22T13:36:50.893Z,4.53
2023-05-22T13:39:18.127Z,3.80
2023-05-22T13:41:48.085Z,4.47
2023-05-22T13:44:15.121Z,3.10
2023-05-22T13:46:42.146Z,4.77
2023-05-22T13:49:09.200Z,6.53
2023-05-22T13:51:36.488Z,3.10
2023-05-22T13:54:04.011Z,5.33
2023-05-22T13:56:31.436Z,3.73
2023-05-22T13:58:58.427Z,7.27
2023-05-22T14:01:25.293Z,7.53
2023-05-22T14:03:52.510Z,3.77
2023-05-22T14:06:21.264Z,24.30
2023-05-22T14:08:48.851Z,5.67
2023-05-22T14:11:15.735Z,31.97
2023-05-22T14:13:43.265Z,8.90
2023-05-22T14:16:10.232Z,3.33
2023-05-22T14:18:37.624Z,7.13
2023-05-22T14:21:05.004Z,8.53
2023-05-22T14:23:32.145Z,11.73
2023-05-22T14:25:59.286Z,14.00
2023-05-22T14:28:26.249Z,7.10
2023-05-22T14:30:56.359Z,3.67
2023-05-22T14:33:23.825Z,11.60
2023-05-22T14:35:55.104Z,10.30
2023-05-22T14:38:22.152Z,9.47
2023-05-22T14:40:49.143Z,4.47
2023-05-22T14:43:16.206Z,4.50
2023-05-22T14:45:43.912Z,5.40
2023-05-22T14:48:11.957Z,3.03
2023-05-22T14:50:38.837Z,7.40
2023-05-22T14:53:05.917Z,6.67
2023-05-22T14:55:32.781Z,4.73
2023-05-22T14:57:59.855Z,7.90
2023-05-22T15:00:27.213Z,7.73
2023-05-22T15:02:54.149Z,16.97
2023-05-22T15:05:21.149Z,11.27
2023-05-22T15:07:49.898Z,4.47
2023-05-22T15:10:18.486Z,12.33
2023-05-22T15:12:45.760Z,6.37
2023-05-22T15:15:12.615Z,14.10
2023-05-22T15:17:41.830Z,10.60
2023-05-22T15:20:10.824Z,7.90
2023-05-22T15:22:37.861Z,9.57
2023-05-22T15:25:11.969Z,9.20
2023-05-22T15:27:39.782Z,9.97
2023-05-22T15:30:09.932Z,5.80
2023-05-22T15:32:37.808Z,11.80
2023-05-22T15:35:05.898Z,7.20
2023-05-22T15:37:34.319Z,7.03
2023-05-22T15:40:01.945Z,9.63
2023-05-22T15:42:29.210Z,7.37
2023-05-22T15:44:56.341Z,8.70
2023-05-22T15:47:23.365Z,8.23
2023-05-22T15:49:50.414Z,8.83
2023-05-22T15:52:17.608Z,8.13
2023-05-22T15:54:44.568Z,9.10
2023-05-22T15:57:11.674Z,8.77
2023-05-22T15:59:38.694Z,8.87
2023-05-22T16:02:05.758Z,8.43
2023-05-22T16:04:33.846Z,9.47
2023-05-22T16:07:04.290Z,8.23
2023-05-22T16:09:32.747Z,9.10
2023-05-22T16:12:00.192Z,8.77
2023-05-22T16:14:27.192Z,9.27
2023-05-22T16:16:54.228Z,8.97
2023-05-22T16:19:21.461Z,8.93
2023-05-22T16:21:48.491Z,8.63
2023-05-22T16:24:15.295Z,8.70
2023-05-22T16:26:42.316Z,12.13
2023-05-22T16:29:10.211Z,8.83
2023-05-22T16:31:37.479Z,8.13
2023-05-22T16:34:05.961Z,8.77
2023-05-22T16:36:33.095Z,8.37
2023-05-22T16:39:00.144Z,8.47
2023-05-22T16:41:27.865Z,8.70
2023-05-22T16:43:55.015Z,7.70
2023-05-22T16:46:22.213Z,9.10
2023-05-22T16:48:49.263Z,8.73
2023-05-22T16:51:16.337Z,9.23
2023-05-22T16:53:43.452Z,8.20
2023-05-22T16:56:10.623Z,9.67
2023-05-22T16:58:37.768Z,9.60
2023-05-22T17:01:06.671Z,9.97
2023-05-22T17:03:36.475Z,10.80
2023-05-22T17:06:04.144Z,10.13
2023-05-22T17:08:32.487Z,9.90
2023-05-22T17:10:59.455Z,12.40
2023-05-22T17:13:26.507Z,10.77
2023-05-22T17:15:53.441Z,9.30
2023-05-22T17:18:21.404Z,8.03
2023-05-22T17:20:54.209Z,7.67
2023-05-22T17:23:21.141Z,8.97
2023-05-22T17:25:48.657Z,9.13
2023-05-22T17:28:15.757Z,7.97
2023-05-22T17:30:44.396Z,9.63
2023-05-22T17:33:12.382Z,9.30
2023-05-22T17:35:39.660Z,9.23
2023-05-22T17:38:08.631Z,9.20
2023-05-22T17:40:44.743Z,9.30
2023-05-22T17:43:13.084Z,8.97
2023-05-22T17:45:40.120Z,8.87
2023-05-22T17:48:08.305Z,8.93
2023-05-22T17:50:35.634Z,12.07
2023-05-22T17:53:02.605Z,9.13
2023-05-22T17:55:29.752Z,8.43
2023-05-22T17:57:56.894Z,10.43
2023-05-22T18:00:23.929Z,8.10
2023-05-22T18:02:50.729Z,7.83
2023-05-22T18:05:17.900Z,8.37
2023-05-22T18:07:44.685Z,8.13
2023-05-22T18:10:11.646Z,8.33
2023-05-22T18:12:38.694Z,9.00
2023-05-22T18:15:08.727Z,8.90
2023-05-22T18:17:35.892Z,8.73
2023-05-22T18:20:04.373Z,9.37
2023-05-22T18:22:31.434Z,9.03
2023-05-22T18:24:58.522Z,8.63
2023-05-22T18:27:25.777Z,8.87
2023-05-22T18:29:53.330Z,9.17
2023-05-22T18:32:20.306Z,10.97
2023-05-22T18:34:48.800Z,9.33
2023-05-22T18:37:16.775Z,9.67
2023-05-22T18:39:43.899Z,9.33
2023-05-22T18:42:11.277Z,9.30
2023-05-22T18:44:38.209Z,9.47
2023-05-22T18:47:05.257Z,9.30
2023-05-22T18:49:32.634Z,9.30
2023-05-22T18:52:00.031Z,10.20
2023-05-22T18:54:27.408Z,9.00
2023-05-22T18:56:54.367Z,9.73
2023-05-22T18:59:21.344Z,9.13
2023-05-22T19:01:48.513Z,9.60
2023-05-22T19:04:15.568Z,11.10
2023-05-22T19:06:42.650Z,26.47
2023-05-22T19:09:12.721Z,10.80
2023-05-22T19:11:39.636Z,12.63
2023-05-22T19:14:06.702Z,16.00
2023-05-22T19:16:33.666Z,15.57
2023-05-22T19:19:00.840Z,15.77
2023-05-22T19:21:27.830Z,18.93
2023-05-22T19:23:54.820Z,19.77
2023-05-22T19:26:22.445Z,17.53
2023-05-22T19:28:49.623Z,20.70
2023-05-22T19:31:16.879Z,20.80
2023-05-22T19:33:44.254Z,19.77
2023-05-22T19:36:11.474Z,20.17
2023-05-22T19:38:38.510Z,21.33
2023-05-22T19:41:05.510Z,21.20
2023-05-22T19:43:32.846Z,21.77
2023-05-22T19:46:00.290Z,22.47
2023-05-22T19:48:27.333Z,18.33
2023-05-22T19:50:54.302Z,22.77
2023-05-22T19:53:21.644Z,24.70
2023-05-22T19:55:49.176Z,21.97
2023-05-22T19:58:17.208Z,18.63
2023-05-22T20:00:44.337Z,18.87
2023-05-22T20:03:11.976Z,19.67
2023-05-22T20:05:39.260Z,20.50
2023-05-22T20:08:07.712Z,21.53
2023-05-22T20:10:34.668Z,21.87
2023-05-22T20:13:01.709Z,19.53
2023-05-22T20:15:28.827Z,19.47
2023-05-22T20:17:55.734Z,20.27
2023-05-22T20:20:24.886Z,18.90
2023-05-22T20:22:54.126Z,19.90
2023-05-22T20:25:21.756Z,19.50
2023-05-22T20:27:48.711Z,20.77
2023-05-22T20:30:16.214Z,20.00
2023-05-22T20:32:45.862Z,20.87
2023-05-22T20:35:20.354Z,21.50
2023-05-22T20:37:47.753Z,22.07
2023-05-22T20:40:15.269Z,21.77
2023-05-22T20:42:46.369Z,22.00
2023-05-22T20:45:15.318Z,21.17
2023-05-22T20:47:43.352Z,22.30
2023-05-22T20:50:11.392Z,22.73
2023-05-22T20:52:38.614Z,23.60
2023-05-22T20:55:06.926Z,23.70
2023-05-22T20:57:34.749Z,23.33
2023-05-22T21:00:02.141Z,25.73
2023-05-22T21:02:29.306Z,24.33
2023-05-22T21:04:56.275Z,24.50
2023-05-22T21:07:23.333Z,22.47
2023-05-22T21:09:50.319Z,23.30
2023-05-22T21:12:20.125Z,23.47
2023-05-22T21:14:47.310Z,25.90
2023-05-22T21:17:14.500Z,24.80
2023-05-22T21:19:41.464Z,25.23
2023-05-22T21:22:09.488Z,20.50
2023-05-22T21:24:36.381Z,20.13
2023-05-22T21:27:03.525Z,20.50
2023-05-22T21:29:30.702Z,21.50
2023-05-22T21:31:57.712Z,21.63
2023-05-22T21:34:24.688Z,20.23
2023-05-22T21:36:51.520Z,21.23
2023-05-22T21:39:18.418Z,19.67
2023-05-22T21:41:45.745Z,20.13
2023-05-22T21:44:13.686Z,20.60
2023-05-22T21:46:40.624Z,21.27
2023-05-22T21:49:09.628Z,20.40
2023-05-22T21:51:37.726Z,22.17
2023-05-22T21:54:04.682Z,22.37
2023-05-22T21:56:31.511Z,25.23
2023-05-22T21:58:58.437Z,23.40
2023-05-22T22:01:25.479Z,25.53
2023-05-22T22:03:52.903Z,25.67
2023-05-22T22:06:19.998Z,26.60
2023-05-22T22:08:47.355Z,26.60
2023-05-22T22:11:14.403Z,27.73
2023-05-22T22:13:41.398Z,28.93
2023-05-22T22:16:08.495Z,27.53
2023-05-22T22:18:37.121Z,32.10
2023-05-22T22:21:04.673Z,33.93
2023-05-22T22:23:31.646Z,32.67
2023-05-22T22:25:58.574Z,35.03
2023-05-22T22:28:25.897Z,35.57
2023-05-22T22:30:55.360Z,35.97
2023-05-22T22:33:23.094Z,35.37
2023-05-22T22:35:50.130Z,35.00
2023-05-22T22:38:17.089Z,34.23
2023-05-22T22:40:44.016Z,34.00
2023-05-22T22:43:11.629Z,33.37
2023-05-22T22:45:40.165Z,32.07
2023-05-22T22:48:07.437Z,34.10
2023-05-22T22:50:35.632Z,34.43
2023-05-22T22:53:02.436Z,35.17
2023-05-22T22:55:29.530Z,35.00
2023-05-22T22:57:56.686Z,37.40
2023-05-22T23:00:24.042Z,34.60
2023-05-22T23:02:51.058Z,35.03
2023-05-22T23:05:20.495Z,36.33
2023-05-22T23:07:48.242Z,37.97
2023-05-22T23:10:15.366Z,39.17
2023-05-22T23:12:42.252Z,41.27
2023-05-22T23:15:11.246Z,43.53
2023-05-22T23:17:38.522Z,46.57
2023-05-22T23:20:06.261Z,45.50
2023-05-22T23:22:33.044Z,49.07
2023-05-22T23:24:59.910Z,46.43
2023-05-22T23:27:27.095Z,46.40
2023-05-22T23:29:54.267Z,49.27
2023-05-22T23:32:22.033Z,47.87
2023-05-22T23:34:49.064Z,51.40
2023-05-22T23:37:16.297Z,52.50
2023-05-22T23:39:43.217Z,58.50
2023-05-22T23:42:11.274Z,56.23
2023-05-22T23:44:38.260Z,58.37
2023-05-22T23:47:06.813Z,55.83
2023-05-22T23:49:34.289Z,51.07
2023-05-22T23:52:01.304Z,49.37
2023-05-22T23:54:28.292Z,48.57
2023-05-22T23:56:55.464Z,47.50
2023-05-22T23:59:22.395Z,48.10
